createdAt,value
2023-02-03T00:00:20.782Z,100503.88
2023-02-03T00:02:50.576Z,100501.78
2023-02-03T00:05:18.979Z,100500.75
2023-02-03T00:07:47.247Z,100490.94
2023-02-03T00:10:16.200Z,100483.09
2023-02-03T00:12:44.467Z,100478.63
2023-02-03T00:15:12.700Z,100474.25
2023-02-03T00:17:41.728Z,100472.66
2023-02-03T00:20:13.423Z,100469.63
2023-02-03T00:22:41.681Z,100462.53
2023-02-03T00:25:10.255Z,100460.66
2023-02-03T00:27:38.460Z,100450.22
2023-02-03T00:30:07.480Z,100438.31
2023-02-03T00:32:36.014Z,100429.44
2023-02-03T00:35:04.493Z,100444.34
2023-02-03T00:37:34.210Z,100426.44
2023-02-03T00:40:02.804Z,100422.84
2023-02-03T00:42:31.016Z,100418.47
2023-02-03T00:44:59.206Z,100417.97
2023-02-03T00:47:28.389Z,100414.09
2023-02-03T00:49:57.032Z,100419.19
2023-02-03T00:52:25.279Z,100406.34
2023-02-03T00:54:55.008Z,100399.59
2023-02-03T00:57:23.236Z,100401.78
2023-02-03T00:59:51.420Z,100403.44
2023-02-03T01:02:19.668Z,100411.16
2023-02-03T01:04:48.341Z,100393.94
2023-02-03T01:07:16.941Z,100398.03
2023-02-03T01:09:45.301Z,100391.97
2023-02-03T01:12:15.507Z,100390.94
2023-02-03T01:14:43.831Z,100365.25
2023-02-03T01:17:13.822Z,100374.22
2023-02-03T01:19:42.101Z,100367.94
2023-02-03T01:22:10.343Z,100360.00
2023-02-03T01:24:38.871Z,100349.44
2023-02-03T01:27:07.513Z,100353.63
2023-02-03T01:29:37.285Z,100354.38
2023-02-03T01:32:05.696Z,100339.31
2023-02-03T01:34:33.961Z,100335.63
2023-02-03T01:37:02.199Z,100323.41
2023-02-03T01:39:30.452Z,100321.75
2023-02-03T01:41:58.945Z,100313.09
2023-02-03T01:44:41.297Z,100310.38
2023-02-03T01:47:23.563Z,100298.16
2023-02-03T01:49:57.016Z,100302.31
2023-02-03T01:52:26.154Z,100292.00
2023-02-03T01:54:58.063Z,100281.44
2023-02-03T01:57:31.039Z,100288.59
2023-02-03T02:00:01.778Z,100276.38
2023-02-03T02:02:30.886Z,100266.78
2023-02-03T02:05:06.153Z,100268.44
2023-02-03T02:07:36.639Z,100265.63
2023-02-03T02:10:07.531Z,100255.78
2023-02-03T02:12:35.744Z,100247.84
2023-02-03T02:15:06.412Z,100240.69
2023-02-03T02:18:07.849Z,100231.22
2023-02-03T02:21:18.192Z,100233.69
2023-02-03T02:24:07.580Z,100233.00
2023-02-03T02:26:58.696Z,100220.78
2023-02-03T02:30:07.803Z,100213.06
2023-02-03T02:32:47.971Z,100207.94
2023-02-03T02:35:24.907Z,100207.00
2023-02-03T02:38:01.180Z,100205.34
2023-02-03T02:40:37.129Z,100198.44
2023-02-03T02:43:11.196Z,100197.59
2023-02-03T02:45:46.155Z,100200.22
2023-02-03T02:48:21.546Z,100193.34
2023-02-03T02:50:53.216Z,100193.94
2023-02-03T02:53:26.063Z,100178.50
2023-02-03T02:55:56.813Z,100182.88
2023-02-03T02:58:26.134Z,100176.94
2023-02-03T03:00:54.374Z,100172.56
2023-02-03T03:03:25.592Z,100166.38
2023-02-03T03:05:56.894Z,100162.09
2023-02-03T03:08:31.189Z,100154.06
2023-02-03T03:11:01.669Z,100150.59
2023-02-03T03:13:33.869Z,100148.00
2023-02-03T03:16:07.793Z,100147.28
2023-02-03T03:18:44.463Z,100142.06
2023-02-03T03:21:17.861Z,100130.16
2023-02-03T03:23:52.316Z,100127.31
2023-02-03T03:26:28.016Z,100128.28
2023-02-03T03:29:04.843Z,100118.78
2023-02-03T03:31:33.340Z,100113.53
2023-02-03T03:34:03.496Z,100108.44
2023-02-03T03:36:34.745Z,100109.28
2023-02-03T03:39:06.778Z,100114.59
2023-02-03T03:41:45.855Z,100112.00
2023-02-03T03:44:18.245Z,100100.59
2023-02-03T03:46:51.608Z,100094.44
2023-02-03T03:49:27.074Z,100089.94
2023-02-03T03:51:59.757Z,100091.25
2023-02-03T03:54:32.552Z,100092.44
2023-02-03T03:57:06.932Z,100094.84
2023-02-03T03:59:42.134Z,100079.88
2023-02-03T04:02:10.615Z,100075.38
2023-02-03T04:04:41.631Z,100065.88
2023-02-03T04:07:09.956Z,100068.38
2023-02-03T04:09:40.410Z,100065.75
2023-02-03T04:12:15.044Z,100067.53
2023-02-03T04:14:43.292Z,100062.22
2023-02-03T04:17:11.497Z,100054.94
2023-02-03T04:19:41.230Z,100053.28
2023-02-03T04:22:09.558Z,100041.53
2023-02-03T04:24:38.620Z,100033.47
2023-02-03T04:27:06.942Z,100032.41
2023-02-03T04:29:35.567Z,100022.75
2023-02-03T04:32:03.982Z,100020.75
2023-02-03T04:34:32.873Z,100017.06
2023-02-03T04:37:02.502Z,100018.84
2023-02-03T04:39:30.718Z,100006.63
2023-02-03T04:41:59.926Z,100005.66
2023-02-03T04:44:28.146Z,99999.50
2023-02-03T04:46:56.325Z,99991.41
2023-02-03T04:49:26.748Z,99985.25
2023-02-03T04:51:55.246Z,99981.66
2023-02-03T04:54:24.945Z,99980.69
2023-02-03T04:56:54.809Z,99979.75
2023-02-03T04:59:23.252Z,99971.78
2023-02-03T05:01:51.440Z,99971.44
2023-02-03T05:04:19.865Z,99958.72
2023-02-03T05:06:48.098Z,99957.41
2023-02-03T05:09:16.879Z,99952.19
2023-02-03T05:11:47.965Z,99941.75
2023-02-03T05:14:16.159Z,99943.41
2023-02-03T05:16:44.685Z,99936.28
2023-02-03T05:19:13.816Z,99936.00
2023-02-03T05:21:42.231Z,99939.31
2023-02-03T05:24:10.842Z,99937.44
2023-02-03T05:26:39.127Z,99922.69
2023-02-03T05:29:10.212Z,99922.56
2023-02-03T05:31:38.589Z,99906.31
2023-02-03T05:34:07.016Z,99900.94
2023-02-03T05:36:35.443Z,99913.53
2023-02-03T05:39:03.694Z,99900.59
2023-02-03T05:41:49.348Z,99902.81
2023-02-03T05:44:18.982Z,99897.47
2023-02-03T05:46:47.334Z,99891.16
2023-02-03T05:49:15.636Z,99884.97
2023-02-03T05:51:46.261Z,99872.84
2023-02-03T05:54:15.103Z,99867.63
2023-02-03T05:56:43.669Z,99872.03
2023-02-03T05:59:12.181Z,99868.03
2023-02-03T06:01:41.900Z,99860.03
2023-02-03T06:04:10.571Z,99865.13
2023-02-03T06:06:38.888Z,99847.78
2023-02-03T06:09:08.794Z,99840.06
2023-02-03T06:11:38.690Z,99842.84
2023-02-03T06:14:06.977Z,99842.69
2023-02-03T06:16:35.180Z,99839.00
2023-02-03T06:19:06.633Z,99841.47
2023-02-03T06:21:34.815Z,99839.69
2023-02-03T06:24:03.327Z,99840.28
2023-02-03T06:26:32.349Z,99839.19
2023-02-03T06:29:00.545Z,99835.63
2023-02-03T06:31:29.006Z,99824.91
2023-02-03T06:33:57.428Z,99825.47
2023-02-03T06:36:27.097Z,99823.56
2023-02-03T06:38:55.319Z,99829.50
2023-02-03T06:41:28.721Z,99819.88
2023-02-03T06:43:59.199Z,99830.09
2023-02-03T06:46:30.287Z,99826.34
2023-02-03T06:49:00.638Z,99826.94
2023-02-03T06:51:30.323Z,99828.34
2023-02-03T06:53:58.949Z,99817.19
2023-02-03T06:56:27.289Z,99815.03
2023-02-03T06:58:55.542Z,99822.59
2023-02-03T07:01:23.835Z,99819.97
2023-02-03T07:03:52.127Z,99805.09
2023-02-03T07:06:20.355Z,99811.03
2023-02-03T07:08:50.032Z,99799.22
2023-02-03T07:11:18.343Z,99804.06
2023-02-03T07:13:46.669Z,99796.66
2023-02-03T07:16:15.883Z,99797.09
2023-02-03T07:18:47.223Z,99788.97
2023-02-03T07:21:19.134Z,99792.28
2023-02-03T07:23:50.559Z,99785.00
2023-02-03T07:26:19.992Z,99778.81
2023-02-03T07:28:48.209Z,99778.81
2023-02-03T07:31:17.030Z,99788.31
2023-02-03T07:33:45.335Z,99783.91
2023-02-03T07:36:13.864Z,99779.91
2023-02-03T07:38:42.158Z,99780.63
2023-02-03T07:41:17.634Z,99782.28
2023-02-03T07:43:46.281Z,99773.34
2023-02-03T07:46:15.113Z,99776.66
2023-02-03T07:48:43.351Z,99773.19
2023-02-03T07:51:12.615Z,99773.91
2023-02-03T07:53:40.836Z,99767.72
2023-02-03T07:56:09.063Z,99763.84
2023-02-03T07:58:38.795Z,99765.38
2023-02-03T08:01:13.203Z,99777.09
2023-02-03T08:03:41.742Z,99774.34
2023-02-03T08:06:10.281Z,99771.19
2023-02-03T08:08:38.639Z,99771.88
2023-02-03T08:11:07.145Z,99773.53
2023-02-03T08:13:35.435Z,99779.47
2023-02-03T08:16:06.485Z,99786.25
2023-02-03T08:18:34.721Z,99790.09
2023-02-03T08:21:04.957Z,99784.03
2023-02-03T08:23:34.812Z,99790.91
2023-02-03T08:26:03.024Z,99787.34
2023-02-03T08:28:31.258Z,99786.25
2023-02-03T08:31:02.578Z,99795.75
2023-02-03T08:33:32.385Z,99781.84
2023-02-03T08:36:01.229Z,99797.00
2023-02-03T08:38:30.055Z,99798.78
2023-02-03T08:40:58.370Z,99804.03
2023-02-03T08:43:27.075Z,99795.91
2023-02-03T08:45:56.401Z,99795.38
2023-02-03T08:48:25.002Z,99793.44
2023-02-03T08:50:55.955Z,99797.41
2023-02-03T08:53:24.173Z,99793.69
2023-02-03T08:55:52.512Z,99806.53
2023-02-03T08:58:20.778Z,99802.97
2023-02-03T09:00:50.106Z,99803.78
2023-02-03T09:03:32.229Z,99815.63
2023-02-03T09:06:02.809Z,99822.97
2023-02-03T09:08:31.246Z,99825.72
2023-02-03T09:10:59.463Z,99816.06
2023-02-03T09:13:27.784Z,99821.69
2023-02-03T09:15:56.084Z,99823.78
2023-02-03T09:18:24.263Z,99829.44
2023-02-03T09:20:52.484Z,99834.84
2023-02-03T09:23:22.188Z,99839.69
2023-02-03T09:25:50.378Z,99833.31
2023-02-03T09:28:18.876Z,99837.88
2023-02-03T09:30:48.084Z,99838.13
2023-02-03T09:33:16.389Z,99837.84
2023-02-03T09:35:53.462Z,99837.44
2023-02-03T09:38:23.596Z,99832.47
2023-02-03T09:41:09.612Z,99833.16
2023-02-03T09:43:46.192Z,99821.56
2023-02-03T09:46:20.279Z,99816.56
2023-02-03T09:48:52.987Z,99813.78
2023-02-03T09:51:27.389Z,99818.63
2023-02-03T09:54:01.941Z,99830.19
2023-02-03T09:56:36.151Z,99833.22
2023-02-03T09:59:05.263Z,99844.97
2023-02-03T10:01:43.233Z,99846.31
2023-02-03T10:04:27.972Z,99846.03
2023-02-03T10:07:04.025Z,99848.41
2023-02-03T10:09:44.093Z,99852.41
2023-02-03T10:12:35.601Z,99862.72
2023-02-03T10:15:18.678Z,99863.69
2023-02-03T10:17:53.202Z,99861.75
2023-02-03T10:20:27.320Z,99871.56
2023-02-03T10:23:01.069Z,99878.72
2023-02-03T10:25:35.955Z,99876.50
2023-02-03T10:28:15.250Z,99875.41
2023-02-03T10:30:48.473Z,99879.22
2023-02-03T10:33:18.765Z,99871.50
2023-02-03T10:35:52.040Z,99878.25
2023-02-03T10:38:36.940Z,99863.59
2023-02-03T10:41:06.911Z,99869.00
2023-02-03T10:43:52.816Z,99876.56
2023-02-03T10:46:23.345Z,99876.97
2023-02-03T10:48:51.931Z,99883.31
2023-02-03T10:51:23.961Z,99881.34
2023-02-03T10:53:53.717Z,99875.94
2023-02-03T10:56:26.984Z,99876.75
2023-02-03T10:58:56.764Z,99880.09
2023-02-03T11:01:28.624Z,99888.66
2023-02-03T11:04:00.341Z,99888.09
2023-02-03T11:06:29.686Z,99887.41
2023-02-03T11:08:58.243Z,99892.06
2023-02-03T11:11:33.084Z,99897.25
2023-02-03T11:14:18.096Z,99893.22
2023-02-03T11:16:48.440Z,99892.03
2023-02-03T11:19:19.765Z,99890.09
2023-02-03T11:21:51.732Z,99895.75
2023-02-03T11:24:22.578Z,99896.25
2023-02-03T11:26:58.650Z,99894.59
2023-02-03T11:29:29.519Z,99893.13
2023-02-03T11:32:00.168Z,99898.38
2023-02-03T11:34:32.458Z,99889.81
2023-02-03T11:37:27.686Z,99896.19
2023-02-03T11:39:58.211Z,99893.94
2023-02-03T11:42:27.899Z,99896.34
2023-02-03T11:45:15.191Z,99901.69
2023-02-03T11:47:48.364Z,99912.75
2023-02-03T11:50:29.821Z,99922.66
2023-02-03T11:53:16.198Z,99924.31
2023-02-03T11:55:57.812Z,99928.91
2023-02-03T11:59:03.646Z,99934.16
2023-02-03T12:02:02.254Z,99935.16
2023-02-03T12:04:46.682Z,99941.56
2023-02-03T12:07:35.716Z,99944.88
2023-02-03T12:10:14.665Z,99950.50
2023-02-03T12:12:54.141Z,99961.41
2023-02-03T12:15:55.440Z,99959.31
2023-02-03T12:18:40.503Z,99974.50
2023-02-03T12:21:24.426Z,99980.44
2023-02-03T12:24:00.331Z,99984.88
2023-02-03T12:26:40.502Z,99985.16
2023-02-03T12:29:14.638Z,99989.31
2023-02-03T12:32:02.301Z,100003.59
2023-02-03T12:34:35.640Z,100002.09
2023-02-03T12:37:07.680Z,100001.94
2023-02-03T12:39:50.597Z,100022.31
2023-02-03T12:42:22.245Z,100017.22
2023-02-03T12:44:55.448Z,100025.63
2023-02-03T12:47:32.015Z,100038.66
2023-02-03T12:50:05.731Z,100042.78
2023-02-03T12:52:40.002Z,100066.50
2023-02-03T12:55:21.843Z,100068.00
2023-02-03T12:57:57.735Z,100084.09
2023-02-03T13:00:36.954Z,100085.59
2023-02-03T13:03:16.770Z,100087.41
2023-02-03T13:05:51.680Z,100103.75
2023-02-03T13:08:27.887Z,100111.03
2023-02-03T13:11:04.138Z,100104.50
2023-02-03T13:13:37.341Z,100107.00
2023-02-03T13:16:14.617Z,100121.81
2023-02-03T13:18:48.934Z,100125.81
2023-02-03T13:21:19.166Z,100129.59
2023-02-03T13:23:48.202Z,100150.34
2023-02-03T13:26:39.068Z,100176.66
2023-02-03T13:29:43.121Z,100186.22
2023-02-03T13:32:26.320Z,100199.69
2023-02-03T13:35:32.274Z,100215.47
2023-02-03T13:38:27.286Z,100210.22
2023-02-03T13:41:06.183Z,100219.13
2023-02-03T13:43:39.137Z,100238.53
2023-02-03T13:46:19.826Z,100237.00
2023-02-03T13:48:48.787Z,100243.09
2023-02-03T13:51:26.463Z,100254.75
2023-02-03T13:54:08.135Z,100249.91
2023-02-03T13:56:37.129Z,100251.13
2023-02-03T13:59:32.044Z,100255.28
2023-02-03T14:02:34.870Z,100270.41
2023-02-03T14:05:04.353Z,100292.72
2023-02-03T14:07:38.302Z,100286.75
2023-02-03T14:10:23.507Z,100292.34
2023-02-03T14:13:00.257Z,100299.41
2023-02-03T14:15:35.455Z,100310.59
2023-02-03T14:18:32.720Z,100326.56
2023-02-03T14:21:20.915Z,100332.09
2023-02-03T14:23:56.831Z,100332.38
2023-02-03T14:26:40.879Z,100320.31
2023-02-03T14:29:12.075Z,100328.34
2023-02-03T14:32:03.374Z,100352.88
2023-02-03T14:34:38.494Z,100357.63
2023-02-03T14:37:22.601Z,100361.34
2023-02-03T14:40:20.365Z,100371.19
2023-02-03T14:43:24.339Z,100378.50
2023-02-03T14:46:22.167Z,100410.94
2023-02-03T14:49:09.718Z,100410.09
2023-02-03T14:51:58.538Z,100429.34
2023-02-03T14:54:42.675Z,100444.31
2023-02-03T14:57:26.884Z,100447.78
2023-02-03T15:00:02.226Z,100467.56
2023-02-03T15:02:32.243Z,100473.50
2023-02-03T15:05:40.410Z,100479.88
2023-02-03T15:08:35.831Z,100503.22
2023-02-03T15:11:28.787Z,100505.19
2023-02-03T15:13:58.892Z,100513.59
2023-02-03T15:16:28.601Z,100513.72
2023-02-03T15:18:59.499Z,100532.56
2023-02-03T15:21:28.223Z,100533.06
2023-02-03T15:23:56.619Z,100536.19
2023-02-03T15:26:27.404Z,100537.03
2023-02-03T15:28:57.030Z,100547.72
2023-02-03T15:31:34.031Z,100557.53
2023-02-03T15:34:08.915Z,100566.88
2023-02-03T15:36:44.318Z,100564.66
2023-02-03T15:39:23.552Z,100566.94
2023-02-03T15:41:56.516Z,100558.34
2023-02-03T15:44:32.413Z,100575.22
2023-02-03T15:47:05.275Z,100569.41
2023-02-03T15:49:41.810Z,100577.53
2023-02-03T15:52:15.652Z,100591.88
2023-02-03T15:54:53.419Z,100587.59
2023-02-03T15:57:28.306Z,100600.72
2023-02-03T15:59:58.673Z,100607.78
2023-02-03T16:02:33.075Z,100616.75
2023-02-03T16:05:05.636Z,100626.69
2023-02-03T16:07:33.940Z,100630.38
2023-02-03T16:10:02.591Z,100643.78
2023-02-03T16:12:32.815Z,100662.28
2023-02-03T16:15:03.398Z,100675.53
2023-02-03T16:17:35.760Z,100688.44
2023-02-03T16:20:24.472Z,100701.47
2023-02-03T16:23:20.882Z,100716.75
2023-02-03T16:26:04.762Z,100726.31
2023-02-03T16:28:50.487Z,100727.81
2023-02-03T16:31:37.783Z,100750.63
2023-02-03T16:34:32.622Z,100753.41
2023-02-03T16:37:19.624Z,100761.31
2023-02-03T16:40:05.111Z,100760.19
2023-02-03T16:42:58.204Z,100767.97
2023-02-03T16:45:44.532Z,100772.63
2023-02-03T16:48:33.116Z,100792.44
2023-02-03T16:51:06.886Z,100795.91
2023-02-03T16:53:35.313Z,100806.56
2023-02-03T16:56:07.014Z,100813.97
2023-02-03T16:58:35.657Z,100809.19
2023-02-03T17:01:05.861Z,100822.69
2023-02-03T17:03:38.355Z,100835.69
2023-02-03T17:06:10.280Z,100845.25
2023-02-03T17:08:41.430Z,100859.34
2023-02-03T17:11:12.871Z,100867.13
2023-02-03T17:13:41.097Z,100867.38
2023-02-03T17:16:12.136Z,100871.91
2023-02-03T17:18:41.115Z,100886.97
2023-02-03T17:21:13.773Z,100892.09
2023-02-03T17:23:42.293Z,100896.13
2023-02-03T17:26:10.712Z,100902.34
2023-02-03T17:28:40.841Z,100906.53
2023-02-03T17:31:09.381Z,100905.94
2023-02-03T17:33:37.662Z,100912.03
2023-02-03T17:36:08.152Z,100910.59
2023-02-03T17:55:23.503Z,100985.97
2023-02-03T17:57:51.918Z,100986.19
2023-02-03T18:00:22.150Z,100999.22
2023-02-03T18:02:51.959Z,100999.81
2023-02-03T18:05:21.016Z,101001.50
2023-02-03T18:07:49.373Z,101011.19
2023-02-03T18:10:18.117Z,101019.06
2023-02-03T18:12:47.894Z,101028.84
2023-02-03T18:15:16.740Z,101037.44
2023-02-03T18:17:45.020Z,101044.25
2023-02-03T18:20:14.450Z,101052.97
2023-02-03T18:22:42.848Z,101067.06
2023-02-03T18:25:11.718Z,101075.66
2023-02-03T18:27:40.039Z,101082.50
2023-02-03T18:30:12.110Z,101070.19
2023-02-03T18:32:40.447Z,101093.00
2023-02-03T18:35:13.140Z,101102.06
2023-02-03T18:37:41.410Z,101097.75
2023-02-03T18:40:10.526Z,101106.97
2023-02-03T18:42:38.908Z,101103.50
2023-02-03T18:45:09.149Z,101114.97
2023-02-03T18:47:39.229Z,101130.53
2023-02-03T18:50:08.177Z,101126.09
2023-02-03T18:52:37.356Z,101142.81
2023-02-03T18:55:05.812Z,101144.72
2023-02-03T18:57:34.030Z,101161.44
2023-02-03T19:00:02.604Z,101171.31
2023-02-03T19:02:30.812Z,101188.88
2023-02-03T19:05:00.646Z,101194.59
2023-02-03T19:07:28.974Z,101204.16
2023-02-03T19:09:57.236Z,101211.31
2023-02-03T19:12:26.455Z,101221.28
2023-02-03T19:14:56.209Z,101226.78
2023-02-03T19:17:24.637Z,101229.63
2023-02-03T19:19:54.682Z,101235.09
2023-02-03T19:22:24.872Z,101247.47
2023-02-03T19:24:53.062Z,101252.63
2023-02-03T19:27:21.457Z,101267.56
2023-02-03T19:29:50.294Z,101270.28
2023-02-03T19:32:18.678Z,101274.19
2023-02-03T19:34:46.944Z,101292.69
2023-02-03T19:37:15.240Z,101299.00
2023-02-03T19:39:48.013Z,101308.56
2023-02-03T19:42:16.247Z,101309.69
2023-02-03T19:44:51.512Z,101316.63
2023-02-03T19:47:20.709Z,101330.50
2023-02-03T19:49:52.509Z,101337.75
2023-02-03T19:52:22.662Z,101342.06
2023-02-03T19:54:54.044Z,101353.41
2023-02-03T19:57:22.365Z,101346.66
2023-02-03T19:59:54.565Z,101359.09
2023-02-03T20:02:22.918Z,101360.97
2023-02-03T20:04:51.278Z,101358.66
2023-02-03T20:07:23.340Z,101369.16
2023-02-03T20:09:53.022Z,101355.47
2023-02-03T20:12:22.430Z,101359.56
2023-02-03T20:14:51.341Z,101367.03
2023-02-03T20:17:19.576Z,101377.84
2023-02-03T20:19:47.798Z,101372.34
2023-02-03T20:22:16.137Z,101381.66
2023-02-03T20:24:44.437Z,101388.34
2023-02-03T20:27:14.193Z,101394.53
2023-02-03T20:29:43.433Z,101396.84
2023-02-03T20:32:11.979Z,101408.75
2023-02-03T20:34:40.327Z,101410.75
2023-02-03T20:37:08.668Z,101434.34
2023-02-03T20:39:36.902Z,101441.66
2023-02-03T20:42:14.777Z,101453.16
2023-02-03T20:44:44.698Z,101452.63
2023-02-03T20:47:13.654Z,101462.38
2023-02-03T20:49:42.848Z,101478.38
2023-02-03T20:52:14.861Z,101483.81
2023-02-03T20:54:43.091Z,101491.66
2023-02-03T20:57:14.871Z,101497.84
2023-02-03T20:59:45.702Z,101509.25
2023-02-03T21:02:25.642Z,101518.91
2023-02-03T21:04:58.762Z,101518.19
2023-02-03T21:07:30.095Z,101527.91
2023-02-03T21:10:00.011Z,101540.94
2023-02-03T21:12:29.613Z,101545.50
2023-02-03T21:14:59.377Z,101550.00
2023-02-03T21:17:28.483Z,101563.50
2023-02-03T21:19:56.697Z,101572.06
2023-02-03T21:22:26.818Z,101572.38
2023-02-03T21:24:57.105Z,101573.56
2023-02-03T21:27:28.696Z,101583.66
2023-02-03T21:29:59.958Z,101578.09
2023-02-03T21:32:37.502Z,101598.97
2023-02-03T21:35:24.051Z,101601.78
2023-02-03T21:37:55.977Z,101617.69
2023-02-03T21:40:29.523Z,101613.47
2023-02-03T21:42:58.780Z,101627.50
2023-02-03T21:45:35.631Z,101635.34
2023-02-03T21:48:32.174Z,101627.50
2023-02-03T21:51:05.635Z,101639.31
2023-02-03T21:53:36.195Z,101633.63
2023-02-03T21:56:18.062Z,101641.22
2023-02-03T21:58:48.689Z,101655.66
2023-02-03T22:01:33.579Z,101663.91
2023-02-03T22:04:02.459Z,101667.88
2023-02-03T22:06:39.845Z,101671.72
2023-02-03T22:09:08.372Z,101672.97
2023-02-03T22:11:36.555Z,101677.94
2023-02-03T22:14:04.789Z,101683.84
2023-02-03T22:16:34.692Z,101686.28
2023-02-03T22:19:03.070Z,101688.75
2023-02-03T22:21:31.448Z,101688.63
2023-02-03T22:23:59.674Z,101688.38
2023-02-03T22:26:28.104Z,101694.19
2023-02-03T22:28:56.343Z,101695.97
2023-02-03T22:31:24.880Z,101695.22
2023-02-03T22:33:54.635Z,101697.44
2023-02-03T22:36:23.719Z,101716.78
2023-02-03T22:38:52.625Z,101721.19
2023-02-03T22:41:21.807Z,101730.63
2023-02-03T22:43:50.036Z,101733.06
2023-02-03T22:46:18.479Z,101737.13
2023-02-03T22:48:47.090Z,101734.31
2023-02-03T22:51:18.078Z,101735.81
2023-02-03T22:53:46.365Z,101745.38
2023-02-03T22:56:14.709Z,101752.31
2023-02-03T22:58:43.195Z,101755.88
2023-02-03T23:01:11.413Z,101758.66
2023-02-03T23:03:39.645Z,101763.28
2023-02-03T23:06:08.277Z,101765.41
2023-02-03T23:08:38.042Z,101780.47
2023-02-03T23:11:06.535Z,101775.13
2023-02-03T23:13:34.799Z,101787.41
2023-02-03T23:16:03.100Z,101786.31
2023-02-03T23:18:31.348Z,101796.63
2023-02-03T23:20:59.524Z,101798.56
2023-02-03T23:23:27.928Z,101804.84
2023-02-03T23:25:57.521Z,101816.28
2023-02-03T23:28:25.750Z,101817.13
2023-02-03T23:30:53.997Z,101821.34
2023-02-03T23:33:22.486Z,101832.78
2023-02-03T23:35:50.793Z,101838.38
2023-02-03T23:38:19.448Z,101845.41
2023-02-03T23:40:47.957Z,101844.72
2023-02-03T23:43:17.862Z,101831.22
2023-02-03T23:45:46.099Z,101846.50
2023-02-03T23:48:14.578Z,101853.53
2023-02-03T23:50:43.876Z,101863.28
2023-02-03T23:53:12.344Z,101860.66
2023-02-03T23:55:40.560Z,101861.56
2023-02-03T23:58:09.116Z,101866.97
